createdAt,value
2019-05-01T00:02:24.568Z,100810.87
2019-05-01T00:04:52.489Z,100803.37
2019-05-01T00:07:29.183Z,100795.42
2019-05-01T00:09:55.244Z,100791.06
2019-05-01T00:12:21.325Z,100780.98
2019-05-01T00:14:47.437Z,100778.91
2019-05-01T00:17:13.330Z,100775.13
2019-05-01T00:19:39.243Z,100765.61
2019-05-01T00:22:05.434Z,100753.75
2019-05-01T00:24:31.450Z,100761.77
2019-05-01T00:26:57.336Z,100784.80
2019-05-01T00:29:23.470Z,100792.87
2019-05-01T00:31:49.593Z,100781.44
2019-05-01T00:34:15.509Z,100780.95
2019-05-01T00:36:41.704Z,100775.72
2019-05-01T00:39:08.639Z,100773.59
2019-05-01T00:41:36.431Z,100762.67
2019-05-01T00:44:02.575Z,100764.93
2019-05-01T00:46:28.578Z,100756.50
2019-05-01T00:48:54.480Z,100757.44
2019-05-01T00:51:20.371Z,100746.91
2019-05-01T00:53:46.401Z,100748.23
2019-05-01T00:56:32.445Z,100746.10
2019-05-01T00:59:00.304Z,100738.64
2019-05-01T01:01:40.371Z,100737.89
2019-05-01T01:04:07.194Z,100734.93
2019-05-01T01:06:33.099Z,100730.21
2019-05-01T01:08:59.216Z,100734.31
2019-05-01T01:11:25.156Z,100736.22
2019-05-01T01:13:51.154Z,100736.77
2019-05-01T01:16:17.247Z,100739.98
2019-05-01T01:18:43.171Z,100735.20
2019-05-01T01:21:09.258Z,100721.77
2019-05-01T01:23:35.571Z,100720.16
2019-05-01T01:26:01.602Z,100712.34
2019-05-01T01:28:27.717Z,100715.98
2019-05-01T01:30:56.589Z,100709.56
2019-05-01T01:33:21.773Z,100711.07
2019-05-01T01:35:47.672Z,100709.88
2019-05-01T01:38:13.804Z,100709.06
2019-05-01T01:40:40.187Z,100709.58
2019-05-01T01:43:25.313Z,100715.41
2019-05-01T01:45:53.463Z,100710.63
2019-05-01T01:48:19.573Z,100704.14
2019-05-01T01:50:46.272Z,100696.72
2019-05-01T01:53:15.576Z,100697.20
2019-05-01T01:55:41.877Z,100702.13
2019-05-01T01:58:07.988Z,100695.52
2019-05-01T02:00:36.107Z,100700.42
2019-05-01T02:03:04.038Z,100697.84
2019-05-01T02:05:32.051Z,100695.64
2019-05-01T02:07:58.207Z,100692.09
2019-05-01T02:10:24.291Z,100693.81
2019-05-01T02:12:50.537Z,100645.23
2019-05-01T02:15:16.590Z,100683.67
2019-05-01T02:17:42.593Z,100689.45
2019-05-01T02:20:08.806Z,100685.48
2019-05-01T02:22:34.855Z,100672.70
2019-05-01T02:25:00.852Z,100681.03
2019-05-01T02:27:29.169Z,100673.09
2019-05-01T02:29:57.718Z,100674.91
2019-05-01T02:32:27.027Z,100666.97
2019-05-01T02:34:54.813Z,100663.33
2019-05-01T02:37:23.161Z,100659.30
2019-05-01T02:39:49.763Z,100656.52
2019-05-01T02:42:19.526Z,100663.95
2019-05-01T02:44:51.107Z,100671.77
2019-05-01T02:47:23.641Z,100665.98
2019-05-01T02:49:53.112Z,100662.89
2019-05-01T02:52:21.701Z,100657.98
2019-05-01T02:54:49.085Z,100646.89
2019-05-01T02:57:18.136Z,100640.63
2019-05-01T02:59:47.661Z,100630.30
2019-05-01T03:02:14.628Z,100642.08
2019-05-01T03:04:40.961Z,100645.98
2019-05-01T03:07:08.174Z,100634.95
2019-05-01T03:09:34.798Z,100625.56
2019-05-01T03:12:01.601Z,100621.84
2019-05-01T03:14:30.915Z,100621.27
2019-05-01T03:17:01.419Z,100619.32
2019-05-01T03:19:29.460Z,100613.52
2019-05-01T03:22:14.419Z,100611.19
2019-05-01T03:24:40.558Z,100614.19
2019-05-01T03:27:06.860Z,100609.20
2019-05-01T03:29:33.296Z,100605.66
2019-05-01T03:32:16.896Z,100604.20
2019-05-01T03:34:28.452Z,100604.13
2019-05-01T03:36:54.626Z,100594.38
2019-05-01T03:39:21.462Z,100591.73
2019-05-01T03:41:47.580Z,100591.66
2019-05-01T03:44:14.677Z,100587.17
2019-05-01T03:46:41.404Z,100587.17
2019-05-01T03:49:07.624Z,100595.05
2019-05-01T03:51:33.939Z,100594.11
2019-05-01T03:54:00.981Z,100593.66
2019-05-01T03:56:27.390Z,100594.98
2019-05-01T03:58:53.631Z,100584.32
2019-05-01T04:01:24.877Z,100588.61
2019-05-01T04:03:54.119Z,100583.66
2019-05-01T04:06:20.251Z,100590.66
2019-05-01T04:08:46.388Z,100587.01
2019-05-01T04:11:12.978Z,100579.94
2019-05-01T04:13:39.237Z,100582.06
2019-05-01T04:16:05.765Z,100580.25
2019-05-01T04:18:32.769Z,100572.72
2019-05-01T04:20:58.899Z,100577.95
2019-05-01T04:23:25.249Z,100575.23
2019-05-01T04:25:52.568Z,100575.16
2019-05-01T04:28:25.392Z,100569.41
2019-05-01T04:30:59.472Z,100569.41
2019-05-01T04:33:25.771Z,100579.52
2019-05-01T04:35:54.196Z,100577.67
2019-05-01T04:38:20.812Z,100571.05
2019-05-01T04:40:47.246Z,100570.59
2019-05-01T04:43:13.433Z,100569.73
2019-05-01T04:45:39.559Z,100570.59
2019-05-01T04:48:05.717Z,100566.94
2019-05-01T04:50:31.811Z,100569.13
2019-05-01T04:52:57.920Z,100560.62
2019-05-01T04:55:24.129Z,100566.27
2019-05-01T04:57:50.184Z,100566.59
2019-05-01T05:00:16.266Z,100556.30
2019-05-01T05:02:44.381Z,100558.81
2019-05-01T05:05:10.560Z,100558.21
2019-05-01T05:07:36.682Z,100557.61
2019-05-01T05:10:05.106Z,100556.67
2019-05-01T05:12:48.276Z,100558.27
2019-05-01T05:15:16.361Z,100555.55
2019-05-01T05:17:42.867Z,100559.31
2019-05-01T05:20:08.976Z,100553.79
2019-05-01T05:22:35.081Z,100554.83
2019-05-01T05:25:01.296Z,100551.16
2019-05-01T05:27:27.890Z,100551.88
2019-05-01T05:29:56.330Z,100552.91
2019-05-01T05:32:24.752Z,100545.61
2019-05-01T05:34:54.574Z,100546.30
2019-05-01T05:37:28.103Z,100557.09
2019-05-01T05:39:55.554Z,100554.75
2019-05-01T05:42:22.159Z,100555.05
2019-05-01T05:44:49.014Z,100548.27
2019-05-01T05:47:15.498Z,100546.03
2019-05-01T05:49:41.616Z,100550.24
2019-05-01T05:52:14.407Z,100557.10
2019-05-01T05:54:44.536Z,100549.87
2019-05-01T05:57:18.787Z,100554.10
2019-05-01T05:59:52.287Z,100550.43
2019-05-01T06:02:34.750Z,100556.98
2019-05-01T06:05:10.170Z,100554.71
2019-05-01T06:07:44.824Z,100555.58
2019-05-01T06:10:12.940Z,100551.07
2019-05-01T06:12:48.556Z,100542.55
2019-05-01T06:15:19.192Z,100554.74
2019-05-01T06:17:50.259Z,100547.95
2019-05-01T06:20:33.231Z,100536.77
2019-05-01T06:23:20.575Z,100541.09
2019-05-01T06:26:00.066Z,100532.64
2019-05-01T06:28:24.927Z,100533.89
2019-05-01T06:30:53.658Z,100528.91
2019-05-01T06:33:19.784Z,100535.31
2019-05-01T06:35:45.906Z,100534.70
2019-05-01T06:38:15.818Z,100534.84
2019-05-01T06:40:44.473Z,100529.75
2019-05-01T06:43:25.368Z,100525.98
2019-05-01T06:45:55.218Z,100524.78
2019-05-01T06:48:23.225Z,100525.41
2019-05-01T06:51:13.040Z,100522.97
2019-05-01T06:53:39.956Z,100515.72
2019-05-01T06:56:05.270Z,100515.93
2019-05-01T06:58:32.813Z,100517.02
2019-05-01T07:00:58.816Z,100526.64
2019-05-01T07:03:25.004Z,100520.21
2019-05-01T07:05:54.569Z,100515.11
2019-05-01T07:08:24.589Z,100513.53
2019-05-01T07:10:47.824Z,100511.13
2019-05-01T07:13:13.973Z,100512.58
2019-05-01T07:15:40.070Z,100506.63
2019-05-01T07:18:06.156Z,100513.90
2019-05-01T07:20:34.696Z,100513.64
2019-05-01T07:23:00.918Z,100517.46
2019-05-01T07:25:26.925Z,100514.23
2019-05-01T07:27:53.935Z,100515.27
2019-05-01T07:30:34.013Z,100517.14
2019-05-01T07:33:00.331Z,100514.65
2019-05-01T07:35:26.459Z,100525.45
2019-05-01T07:37:52.791Z,100521.55
2019-05-01T07:40:21.186Z,100523.53
2019-05-01T07:42:50.390Z,100513.23
2019-05-01T07:45:18.822Z,100516.19
2019-05-01T07:47:46.845Z,100520.05
2019-05-01T07:50:16.155Z,100515.27
2019-05-01T07:52:42.578Z,100518.55
2019-05-01T07:55:12.988Z,100515.65
2019-05-01T07:57:39.338Z,100516.06
2019-05-01T08:00:10.552Z,100515.11
2019-05-01T08:02:36.744Z,100519.88
2019-05-01T08:05:09.365Z,100516.89
2019-05-01T08:07:33.594Z,100519.55
2019-05-01T08:09:59.711Z,100517.47
2019-05-01T08:12:25.991Z,100527.85
2019-05-01T08:14:53.668Z,100531.54
2019-05-01T08:17:21.593Z,100526.77
2019-05-01T08:19:52.115Z,100532.00
2019-05-01T08:22:22.930Z,100519.42
2019-05-01T08:24:48.947Z,100522.48
2019-05-01T08:27:20.231Z,100521.65
2019-05-01T08:30:01.125Z,100523.73
2019-05-01T08:32:45.409Z,100519.59
2019-05-01T08:35:13.487Z,100520.62
2019-05-01T08:37:39.410Z,100520.33
2019-05-01T08:40:06.527Z,100518.45
2019-05-01T08:42:32.572Z,100515.79
2019-05-01T08:45:05.078Z,100513.30
2019-05-01T08:47:35.857Z,100510.48
2019-05-01T08:50:15.292Z,100507.36
2019-05-01T08:52:42.607Z,100511.72
2019-05-01T08:55:10.949Z,100502.84
2019-05-01T08:57:39.304Z,100508.07
2019-05-01T09:00:06.557Z,100509.40
2019-05-01T09:02:32.440Z,100509.78
2019-05-01T09:05:02.572Z,100503.47
2019-05-01T09:07:26.658Z,100504.72
2019-05-01T09:09:52.688Z,100504.22
2019-05-01T09:12:18.615Z,100501.48
2019-05-01T09:14:44.527Z,100502.73
2019-05-01T09:17:10.540Z,100501.02
2019-05-01T09:19:36.686Z,100494.55
2019-05-01T09:22:02.873Z,100496.05
2019-05-01T09:24:29.471Z,100493.92
2019-05-01T09:26:57.582Z,100498.07
2019-05-01T09:29:28.346Z,100499.40
2019-05-01T09:31:54.573Z,100494.25
2019-05-01T09:34:21.071Z,100494.41
2019-05-01T09:36:47.254Z,100490.05
2019-05-01T09:39:14.265Z,100492.22
2019-05-01T09:41:43.055Z,100480.76
2019-05-01T09:44:10.666Z,100484.74
2019-05-01T09:46:36.592Z,100485.98
2019-05-01T09:49:03.399Z,100479.64
2019-05-01T09:51:37.140Z,100476.37
2019-05-01T09:54:21.359Z,100464.09
2019-05-01T09:56:49.460Z,100461.11
2019-05-01T09:59:17.488Z,100453.19
2019-05-01T10:01:43.400Z,100460.90
2019-05-01T10:04:09.586Z,100458.48
2019-05-01T10:06:35.603Z,100456.83
2019-05-01T10:09:01.723Z,100453.45
2019-05-01T10:11:27.740Z,100450.55
2019-05-01T10:13:58.289Z,100452.77
2019-05-01T10:16:21.544Z,100448.62
2019-05-01T10:18:47.552Z,100441.39
2019-05-01T10:21:13.572Z,100439.89
2019-05-01T10:23:39.693Z,100432.06
2019-05-01T10:26:07.480Z,100437.03
2019-05-01T10:28:35.305Z,100432.88
2019-05-01T10:31:07.031Z,100432.61
2019-05-01T10:33:44.281Z,100428.91
2019-05-01T10:36:18.171Z,100423.91
2019-05-01T10:38:44.852Z,100421.16
2019-05-01T10:41:09.151Z,100420.12
2019-05-01T10:43:35.719Z,100419.48
2019-05-01T10:46:01.748Z,100415.22
2019-05-01T10:48:27.649Z,100417.80
2019-05-01T10:50:53.556Z,100407.25
2019-05-01T10:53:19.568Z,100400.69
2019-05-01T10:55:45.646Z,100406.01
2019-05-01T10:58:12.825Z,100402.11
2019-05-01T11:00:41.476Z,100405.31
2019-05-01T11:03:08.086Z,100392.30
2019-05-01T11:05:34.110Z,100392.63
2019-05-01T11:08:00.127Z,100395.56
2019-05-01T11:10:26.132Z,100387.99
2019-05-01T11:12:52.091Z,100381.02
2019-05-01T11:15:18.313Z,100372.09
2019-05-01T11:17:44.205Z,100374.97
2019-05-01T11:20:10.351Z,100368.05
2019-05-01T11:22:36.276Z,100365.67
2019-05-01T11:25:04.960Z,100361.12
2019-05-01T11:27:30.889Z,100361.72
2019-05-01T11:29:56.806Z,100357.55
2019-05-01T11:32:30.913Z,100355.45
2019-05-01T11:34:58.833Z,100354.98
2019-05-01T11:37:35.671Z,100349.94
2019-05-01T11:40:15.596Z,100350.90
2019-05-01T11:42:41.780Z,100345.95
2019-05-01T11:45:08.685Z,100337.02
2019-05-01T11:47:34.611Z,100330.17
2019-05-01T11:50:00.836Z,100323.06
2019-05-01T11:52:26.731Z,100319.34
2019-05-01T11:54:52.773Z,100322.00
2019-05-01T11:57:18.691Z,100313.38
2019-05-01T11:59:44.581Z,100316.59
2019-05-01T12:02:10.718Z,100307.59
2019-05-01T12:04:36.722Z,100315.94
2019-05-01T12:07:03.030Z,100305.30
2019-05-01T12:09:29.142Z,100297.31
2019-05-01T12:11:56.968Z,100294.87
2019-05-01T12:14:22.969Z,100295.81
2019-05-01T12:16:53.779Z,100287.45
2019-05-01T12:19:20.279Z,100288.87
2019-05-01T12:21:46.179Z,100279.62
2019-05-01T12:24:12.190Z,100278.88
2019-05-01T12:26:40.017Z,100272.43
2019-05-01T12:29:05.965Z,100274.03
2019-05-01T12:31:32.151Z,100266.22
2019-05-01T12:33:58.395Z,100263.30
2019-05-01T12:36:35.642Z,100259.00
2019-05-01T12:38:52.266Z,100252.55
2019-05-01T12:41:20.227Z,100248.62
2019-05-01T12:43:46.149Z,100241.77
2019-05-01T12:46:13.987Z,100238.54
2019-05-01T12:48:40.062Z,100230.28
2019-05-01T12:51:06.265Z,100226.28
2019-05-01T12:53:34.190Z,100226.09
2019-05-01T12:56:05.013Z,100215.70
2019-05-01T12:58:31.122Z,100214.06
2019-05-01T13:00:57.153Z,100206.84
2019-05-01T13:03:23.227Z,100205.66
2019-05-01T13:05:49.386Z,100199.27
2019-05-01T13:08:15.476Z,100192.91
2019-05-01T13:10:41.568Z,100187.38
2019-05-01T13:13:07.579Z,100182.20
2019-05-01T13:15:33.684Z,100180.20
2019-05-01T13:17:59.801Z,100174.77
2019-05-01T13:20:25.706Z,100174.66
2019-05-01T13:22:51.764Z,100166.45
2019-05-01T13:25:18.017Z,100164.81
2019-05-01T13:27:45.841Z,100164.76
2019-05-01T13:30:36.179Z,100159.22
2019-05-01T13:33:02.791Z,100161.57
2019-05-01T13:35:30.577Z,100159.51
2019-05-01T13:37:56.723Z,100161.73
2019-05-01T13:40:22.861Z,100159.80
2019-05-01T13:42:48.870Z,100171.28
2019-05-01T13:45:15.316Z,100160.11
2019-05-01T13:47:41.337Z,100155.00
2019-05-01T13:50:08.248Z,100163.80
2019-05-01T13:52:34.558Z,100159.18
2019-05-01T13:55:00.658Z,100160.98
2019-05-01T13:57:26.558Z,100166.23
2019-05-01T13:59:52.523Z,100155.39
2019-05-01T14:02:18.641Z,100150.36
2019-05-01T14:04:46.871Z,100139.45
2019-05-01T14:07:16.627Z,100134.59
2019-05-01T14:09:41.037Z,100132.80
2019-05-01T14:12:08.840Z,100132.95
2019-05-01T14:14:34.863Z,100139.68
2019-05-01T14:17:00.790Z,100132.86
2019-05-01T14:19:27.291Z,100126.97
2019-05-01T14:21:55.098Z,100121.84
2019-05-01T14:24:35.009Z,100121.31
2019-05-01T14:27:01.139Z,100117.59
2019-05-01T14:29:28.151Z,100119.09
2019-05-01T14:31:54.196Z,100117.29
2019-05-01T14:34:20.114Z,100114.36
2019-05-01T14:36:46.139Z,100121.68
2019-05-01T14:39:12.183Z,100118.55
2019-05-01T14:41:38.582Z,100119.02
2019-05-01T14:44:04.805Z,100117.89
2019-05-01T14:46:30.797Z,100111.90
2019-05-01T14:48:56.709Z,100114.76
2019-05-01T14:51:22.739Z,100112.39
2019-05-01T14:53:48.759Z,100103.47
2019-05-01T14:56:14.862Z,100098.45
2019-05-01T14:58:40.884Z,100100.94
2019-05-01T15:01:07.162Z,100096.74
2019-05-01T15:03:33.161Z,100089.25
2019-05-01T15:05:59.173Z,100086.22
2019-05-01T15:08:25.276Z,100092.98
2019-05-01T15:10:51.500Z,100090.80
2019-05-01T15:13:28.082Z,100088.06
2019-05-01T15:15:56.009Z,100081.61
2019-05-01T15:18:40.192Z,100080.57
2019-05-01T15:21:06.257Z,100081.32
2019-05-01T15:23:32.150Z,100081.58
2019-05-01T15:25:58.089Z,100079.70
2019-05-01T15:28:24.177Z,100076.66
2019-05-01T15:30:50.904Z,100075.20
2019-05-01T15:33:16.852Z,100073.14
2019-05-01T15:35:42.946Z,100068.84
2019-05-01T15:38:09.145Z,100067.61
2019-05-01T15:40:45.991Z,100066.00
2019-05-01T15:43:25.604Z,100062.20
2019-05-01T15:45:52.572Z,100062.58
2019-05-01T15:48:21.074Z,100060.11
2019-05-01T15:50:47.777Z,100057.45
2019-05-01T15:53:14.000Z,100057.55
2019-05-01T15:55:39.928Z,100055.53
2019-05-01T15:58:05.912Z,100052.61
2019-05-01T16:00:31.961Z,100055.81
2019-05-01T16:02:57.884Z,100042.91
2019-05-01T16:05:23.865Z,100041.63
2019-05-01T16:07:49.911Z,100038.66
2019-05-01T16:10:17.910Z,100036.83
2019-05-01T16:12:45.718Z,100040.13
2019-05-01T16:15:16.466Z,100035.41
2019-05-01T16:17:42.383Z,100032.44
2019-05-01T16:20:08.503Z,100030.83
2019-05-01T16:22:34.664Z,100024.20
2019-05-01T16:25:00.656Z,100023.34
2019-05-01T16:27:26.564Z,100017.47
2019-05-01T16:29:52.605Z,100022.64
2019-05-01T16:32:18.598Z,100014.12
2019-05-01T16:34:44.715Z,100011.82
2019-05-01T16:37:10.847Z,100011.97
2019-05-01T16:39:44.216Z,100010.36
2019-05-01T16:42:10.223Z,100002.49
2019-05-01T16:44:38.494Z,99996.81
2019-05-01T16:47:04.512Z,99997.36
2019-05-01T16:49:31.421Z,99995.27
2019-05-01T16:51:57.676Z,99994.34
2019-05-01T16:54:23.693Z,99989.88
2019-05-01T16:56:50.024Z,99989.04
2019-05-01T16:59:16.089Z,99993.84
2019-05-01T17:02:00.333Z,99984.75
2019-05-01T17:04:44.731Z,99991.64
2019-05-01T17:07:27.740Z,99988.80
2019-05-01T17:09:55.959Z,99986.32
2019-05-01T17:12:23.871Z,99983.47
2019-05-01T17:14:50.068Z,99984.11
2019-05-01T17:17:18.151Z,99986.39
2019-05-01T17:19:44.093Z,99977.16
2019-05-01T17:22:14.242Z,99976.97
2019-05-01T17:24:40.353Z,99972.30
2019-05-01T17:27:06.446Z,99967.50
2019-05-01T17:29:32.535Z,99970.52
2019-05-01T17:31:58.662Z,99964.76
2019-05-01T17:34:25.709Z,99966.72
2019-05-01T17:36:52.512Z,99964.05
2019-05-01T17:39:18.825Z,99960.80
2019-05-01T17:41:44.743Z,99957.94
2019-05-01T17:44:10.653Z,99956.13
2019-05-01T17:46:37.453Z,99949.13
2019-05-01T17:49:04.074Z,99954.80
2019-05-01T17:51:31.297Z,99946.02
2019-05-01T17:53:57.383Z,99950.37
2019-05-01T17:56:28.018Z,99943.74
2019-05-01T17:58:51.245Z,99942.79
2019-05-01T18:01:35.758Z,99943.37
2019-05-01T18:04:03.583Z,99943.83
2019-05-01T18:06:31.510Z,99942.05
2019-05-01T18:09:03.178Z,99935.42
2019-05-01T18:11:25.505Z,99933.41
2019-05-01T18:13:51.522Z,99932.43
2019-05-01T18:16:17.703Z,99925.48
2019-05-01T18:18:43.743Z,99925.11
2019-05-01T18:21:10.763Z,99913.66
2019-05-01T18:23:53.661Z,99923.41
2019-05-01T18:26:38.834Z,99921.69
2019-05-01T18:29:19.813Z,99912.82
2019-05-01T18:31:46.026Z,99912.33
2019-05-01T18:34:12.029Z,99910.45
2019-05-01T18:36:40.111Z,99909.91
2019-05-01T18:39:16.591Z,99907.63
2019-05-01T18:41:45.628Z,99904.03
2019-05-01T18:44:11.571Z,99902.25
2019-05-01T18:46:37.640Z,99896.17
2019-05-01T18:49:03.796Z,99903.75
2019-05-01T18:51:29.805Z,99908.18
2019-05-01T18:53:57.397Z,99897.76
2019-05-01T18:56:23.928Z,99898.62
2019-05-01T18:58:49.831Z,99887.66
2019-05-01T19:01:16.075Z,99892.81
2019-05-01T19:03:44.066Z,99895.64
2019-05-01T19:06:10.445Z,99892.77
2019-05-01T19:08:36.487Z,99891.63
2019-05-01T19:11:12.408Z,99893.72
2019-05-01T19:13:30.494Z,99889.14
2019-05-01T19:15:56.526Z,99887.53
2019-05-01T19:18:22.633Z,99886.20
2019-05-01T19:20:58.983Z,99887.16
2019-05-01T19:23:16.574Z,99877.98
2019-05-01T19:25:42.669Z,99873.77
2019-05-01T19:28:08.863Z,99870.51
2019-05-01T19:30:35.223Z,99882.91
2019-05-01T19:33:01.318Z,99871.70
2019-05-01T19:35:29.007Z,99870.02
2019-05-01T19:37:57.457Z,99874.06
2019-05-01T19:40:25.102Z,99865.80
2019-05-01T19:42:53.699Z,99862.49
2019-05-01T19:45:19.017Z,99854.81
2019-05-01T19:47:45.645Z,99859.23
2019-05-01T19:50:12.576Z,99859.03
2019-05-01T19:52:39.883Z,99858.25
2019-05-01T19:55:07.680Z,99856.09
2019-05-01T19:57:33.713Z,99851.80
2019-05-01T19:59:59.728Z,99846.76
2019-05-01T20:02:25.721Z,99854.02
2019-05-01T20:04:52.462Z,99849.19
2019-05-01T20:07:21.417Z,99843.04
2019-05-01T20:09:56.738Z,99837.00
2019-05-01T20:12:14.653Z,99834.52
2019-05-01T20:14:40.754Z,99827.88
2019-05-01T20:17:11.599Z,99828.07
2019-05-01T20:19:37.638Z,99820.70
2019-05-01T20:22:07.681Z,99820.00
2019-05-01T20:24:33.791Z,99823.02
2019-05-01T20:26:59.714Z,99818.76
2019-05-01T20:29:27.518Z,99823.88
2019-05-01T20:31:53.670Z,99820.64
2019-05-01T20:34:19.560Z,99817.75
2019-05-01T20:36:45.452Z,99815.83
2019-05-01T20:39:11.477Z,99812.25
2019-05-01T20:41:37.385Z,99808.58
2019-05-01T20:44:03.696Z,99808.58
2019-05-01T20:46:29.880Z,99806.26
2019-05-01T20:49:00.889Z,99799.89
2019-05-01T20:51:23.745Z,99797.56
2019-05-01T20:53:49.704Z,99797.72
2019-05-01T20:56:23.233Z,99799.98
2019-05-01T20:58:49.217Z,99788.34
2019-05-01T21:01:15.483Z,99785.52
2019-05-01T21:03:43.325Z,99786.01
2019-05-01T21:06:14.270Z,99783.59
2019-05-01T21:08:42.259Z,99782.27
2019-05-01T21:11:13.054Z,99788.41
2019-05-01T21:13:38.997Z,99782.19
2019-05-01T21:16:04.917Z,99779.93
2019-05-01T21:18:30.940Z,99778.61
2019-05-01T21:20:56.835Z,99783.52
2019-05-01T21:23:23.384Z,99778.23
2019-05-01T21:25:49.352Z,99775.21
2019-05-01T21:28:15.357Z,99779.09
2019-05-01T21:30:45.764Z,99778.31
2019-05-01T21:33:11.463Z,99773.48
2019-05-01T21:35:37.315Z,99776.12
2019-05-01T21:38:03.416Z,99768.84
2019-05-01T21:40:38.774Z,99772.89
2019-05-01T21:42:57.265Z,99770.78
2019-05-01T21:45:23.257Z,99769.23
2019-05-01T21:47:49.210Z,99769.47
2019-05-01T21:50:17.797Z,99766.13
2019-05-01T21:52:43.764Z,99767.75
2019-05-01T21:55:09.971Z,99761.99
2019-05-01T21:57:40.088Z,99763.23
2019-05-01T22:00:06.119Z,99754.69
2019-05-01T22:02:32.244Z,99755.78
2019-05-01T22:05:03.810Z,99756.05
2019-05-01T22:07:27.850Z,99745.05
2019-05-01T22:09:54.261Z,99744.86
2019-05-01T22:12:20.278Z,99744.17
2019-05-01T22:14:57.176Z,99732.45
2019-05-01T22:17:27.324Z,99731.29
2019-05-01T22:19:53.158Z,99739.20
2019-05-01T22:22:21.253Z,99696.86
2019-05-01T22:24:55.047Z,99735.55
2019-05-01T22:27:28.677Z,99732.91
2019-05-01T22:30:10.634Z,99727.37
2019-05-01T22:32:35.318Z,99719.61
2019-05-01T22:35:19.777Z,99727.44
2019-05-01T22:37:46.006Z,99720.55
2019-05-01T22:40:15.403Z,99722.59
2019-05-01T22:42:41.442Z,99712.42
2019-05-01T22:45:11.092Z,99716.30
2019-05-01T22:47:37.106Z,99705.83
2019-05-01T22:50:07.742Z,99702.43
2019-05-01T22:52:34.028Z,99696.37
2019-05-01T22:54:59.985Z,99697.31
2019-05-01T22:57:25.908Z,99691.96
2019-05-01T22:59:53.920Z,99693.66
2019-05-01T23:02:36.848Z,99689.33
2019-05-01T23:05:05.722Z,99690.72
2019-05-01T23:07:31.743Z,99679.84
2019-05-01T23:09:59.261Z,99681.16
2019-05-01T23:12:28.756Z,99673.32
2019-05-01T23:14:54.861Z,99676.48
2019-05-01T23:17:22.685Z,99670.77
2019-05-01T23:19:49.046Z,99668.98
2019-05-01T23:22:19.971Z,99669.81
2019-05-01T23:24:45.891Z,99669.52
2019-05-01T23:27:12.023Z,99627.30
2019-05-01T23:29:37.907Z,99667.11
2019-05-01T23:32:05.140Z,99657.23
2019-05-01T23:34:31.359Z,99654.75
2019-05-01T23:36:57.265Z,99654.91
2019-05-01T23:39:23.511Z,99648.80
2019-05-01T23:41:49.676Z,99648.31
2019-05-01T23:44:15.694Z,99650.57
2019-05-01T23:46:41.635Z,99643.05
2019-05-01T23:49:07.893Z,99641.80
2019-05-01T23:51:33.883Z,99644.13
2019-05-01T23:53:59.783Z,99637.70
2019-05-01T23:56:26.444Z,99632.65
2019-05-01T23:58:52.474Z,99626.97
